createdAt,value
2019-03-19T00:00:31.288Z,79.50
2019-03-19T00:03:02.703Z,79.34
2019-03-19T00:05:33.378Z,79.40
2019-03-19T00:08:04.149Z,79.71
2019-03-19T00:10:34.962Z,79.73
2019-03-19T00:13:05.927Z,80.50
2019-03-19T00:15:36.617Z,80.17
2019-03-19T00:18:07.298Z,80.16
2019-03-19T00:20:37.864Z,79.46
2019-03-19T00:23:08.560Z,79.86
2019-03-19T00:25:39.300Z,80.05
2019-03-19T00:28:10.021Z,79.88
2019-03-19T00:30:40.550Z,79.78
2019-03-19T00:33:11.282Z,79.88
2019-03-19T00:35:42.025Z,79.80
2019-03-19T00:38:12.769Z,79.30
2019-03-19T00:40:43.349Z,79.36
2019-03-19T00:43:14.023Z,79.46
2019-03-19T00:45:44.613Z,79.53
2019-03-19T00:48:15.385Z,79.92
2019-03-19T00:50:45.981Z,79.61
2019-03-19T00:53:16.641Z,80.07
2019-03-19T00:55:47.382Z,80.31
2019-03-19T00:58:17.880Z,80.32
2019-03-19T01:00:48.596Z,81.17
2019-03-19T01:03:19.471Z,81.44
2019-03-19T01:05:50.111Z,82.12
2019-03-19T01:08:20.756Z,81.89
2019-03-19T01:10:51.522Z,81.91
2019-03-19T01:13:22.210Z,82.20
2019-03-19T01:15:52.738Z,82.05
2019-03-19T01:18:23.595Z,81.87
2019-03-19T01:20:54.206Z,81.55
2019-03-19T01:23:24.940Z,81.77
2019-03-19T01:25:55.995Z,82.55
2019-03-19T01:28:27.942Z,83.65
2019-03-19T01:30:58.473Z,83.89
2019-03-19T01:33:29.246Z,84.03
2019-03-19T01:36:00.071Z,84.58
2019-03-19T01:38:30.780Z,83.84
2019-03-19T01:41:01.750Z,83.59
2019-03-19T01:43:32.309Z,82.81
2019-03-19T01:46:03.006Z,82.39
2019-03-19T01:48:33.673Z,81.80
2019-03-19T01:51:04.523Z,82.60
2019-03-19T01:53:35.144Z,82.92
2019-03-19T01:56:06.215Z,82.91
2019-03-19T01:58:36.750Z,82.74
2019-03-19T02:01:07.587Z,82.27
2019-03-19T02:03:38.248Z,81.72
2019-03-19T02:06:08.952Z,81.43
2019-03-19T02:08:39.537Z,81.25
2019-03-19T02:11:10.115Z,81.39
2019-03-19T02:13:40.788Z,81.03
2019-03-19T02:16:11.779Z,81.04
2019-03-19T02:18:42.317Z,80.86
2019-03-19T02:21:13.002Z,80.77
2019-03-19T02:23:43.693Z,80.76
2019-03-19T02:26:16.684Z,80.86
2019-03-19T02:28:47.034Z,80.69
2019-03-19T02:31:17.722Z,80.56
2019-03-19T02:33:48.391Z,80.59
2019-03-19T02:36:19.143Z,80.70
2019-03-19T02:38:49.823Z,80.64
2019-03-19T02:41:20.497Z,80.68
2019-03-19T02:43:51.297Z,80.68
2019-03-19T02:46:21.977Z,80.48
2019-03-19T02:48:52.731Z,80.71
2019-03-19T02:51:23.304Z,80.62
2019-03-19T02:53:53.988Z,80.48
2019-03-19T02:56:32.694Z,81.38
2019-03-19T02:58:57.051Z,81.41
2019-03-19T03:01:27.828Z,81.19
2019-03-19T03:03:58.496Z,80.90
2019-03-19T03:06:28.982Z,80.86
2019-03-19T03:08:59.658Z,80.78
2019-03-19T03:11:31.379Z,81.18
2019-03-19T03:14:01.982Z,80.99
2019-03-19T03:16:32.641Z,81.08
2019-03-19T03:19:03.302Z,81.04
2019-03-19T03:21:34.806Z,81.09
2019-03-19T03:24:05.858Z,80.98
2019-03-19T03:26:47.349Z,80.88
2019-03-19T03:29:08.912Z,80.61
2019-03-19T03:31:39.626Z,81.29
2019-03-19T03:34:10.199Z,81.30
2019-03-19T03:36:40.863Z,81.03
2019-03-19T03:39:11.529Z,80.85
2019-03-19T03:41:42.274Z,81.10
2019-03-19T03:44:13.002Z,81.28
2019-03-19T03:46:43.631Z,81.87
2019-03-19T03:49:14.255Z,81.53
2019-03-19T03:51:44.996Z,81.04
2019-03-19T03:54:15.729Z,80.57
2019-03-19T03:57:00.924Z,80.88
2019-03-19T03:59:18.746Z,81.49
2019-03-19T04:01:49.488Z,81.87
2019-03-19T04:04:20.287Z,81.48
2019-03-19T04:06:50.934Z,81.16
2019-03-19T04:09:21.724Z,81.21
2019-03-19T04:11:52.820Z,81.78
2019-03-19T04:14:24.617Z,81.75
2019-03-19T04:16:55.411Z,81.50
2019-03-19T04:19:26.189Z,82.03
2019-03-19T04:21:56.980Z,81.77
2019-03-19T04:24:27.820Z,82.03
2019-03-19T04:26:58.728Z,81.63
2019-03-19T04:29:29.588Z,81.48
2019-03-19T04:32:00.202Z,81.78
2019-03-19T04:34:31.086Z,81.63
2019-03-19T04:37:01.879Z,81.75
2019-03-19T04:39:32.705Z,82.34
2019-03-19T04:42:03.490Z,82.67
2019-03-19T04:44:34.211Z,82.40
2019-03-19T04:47:05.276Z,82.06
2019-03-19T04:49:36.079Z,82.04
2019-03-19T04:52:06.950Z,81.93
2019-03-19T04:54:37.701Z,81.86
2019-03-19T04:57:08.458Z,81.95
2019-03-19T04:59:39.227Z,82.23
2019-03-19T05:02:10.132Z,82.85
2019-03-19T05:04:41.027Z,82.81
2019-03-19T05:07:11.833Z,82.30
2019-03-19T05:09:42.701Z,81.92
2019-03-19T05:12:13.505Z,81.88
2019-03-19T05:14:44.242Z,81.69
2019-03-19T05:17:15.081Z,81.82
2019-03-19T05:19:45.908Z,81.69
2019-03-19T05:22:16.644Z,81.90
2019-03-19T05:24:47.472Z,81.82
2019-03-19T05:27:18.215Z,82.14
2019-03-19T05:29:49.024Z,82.46
2019-03-19T05:32:19.896Z,82.82
2019-03-19T05:34:50.695Z,83.00
2019-03-19T05:37:21.528Z,82.34
2019-03-19T05:39:52.505Z,82.74
2019-03-19T05:42:23.214Z,83.59
2019-03-19T05:44:54.107Z,83.38
2019-03-19T05:47:25.008Z,83.94
2019-03-19T05:49:55.897Z,84.01
2019-03-19T05:52:26.681Z,83.77
2019-03-19T05:54:57.469Z,83.04
2019-03-19T05:57:28.247Z,82.75
2019-03-19T05:59:59.091Z,82.75
2019-03-19T06:02:29.892Z,82.44
2019-03-19T06:05:00.719Z,82.17
2019-03-19T06:07:32.524Z,81.97
2019-03-19T06:10:03.406Z,81.80
2019-03-19T06:12:34.163Z,81.60
2019-03-19T06:15:05.443Z,81.78
2019-03-19T06:17:36.312Z,82.32
2019-03-19T06:20:07.493Z,82.62
2019-03-19T06:22:38.360Z,82.49
2019-03-19T06:25:09.978Z,82.19
2019-03-19T06:27:40.859Z,81.90
2019-03-19T06:30:14.359Z,82.23
2019-03-19T06:32:45.260Z,82.37
2019-03-19T06:35:16.348Z,82.40
2019-03-19T06:37:47.237Z,82.34
2019-03-19T06:40:18.507Z,82.04
2019-03-19T06:42:49.083Z,82.10
2019-03-19T06:45:22.903Z,83.13
2019-03-19T06:47:52.737Z,83.51
2019-03-19T06:50:24.001Z,83.12
2019-03-19T06:52:54.836Z,83.12
2019-03-19T06:55:25.716Z,82.65
2019-03-19T06:57:56.511Z,82.52
2019-03-19T07:00:27.391Z,82.36
2019-03-19T07:02:58.257Z,82.13
2019-03-19T07:05:29.237Z,82.52
2019-03-19T07:08:00.136Z,82.35
2019-03-19T07:10:30.950Z,82.66
2019-03-19T07:13:01.635Z,81.74
2019-03-19T07:15:32.482Z,81.60
2019-03-19T07:18:04.132Z,81.83
2019-03-19T07:20:34.930Z,81.91
2019-03-19T07:23:05.773Z,81.80
2019-03-19T07:25:36.751Z,81.36
2019-03-19T07:28:07.475Z,80.50
2019-03-19T07:30:40.735Z,79.61
2019-03-19T07:33:10.711Z,79.86
2019-03-19T07:35:41.442Z,80.08
2019-03-19T07:38:12.252Z,80.44
2019-03-19T07:40:44.056Z,77.78
2019-03-19T07:43:14.855Z,78.18
2019-03-19T07:45:45.612Z,78.50
2019-03-19T07:48:17.233Z,78.22
2019-03-19T07:50:47.966Z,76.44
2019-03-19T07:53:18.784Z,76.93
2019-03-19T07:55:49.638Z,78.29
2019-03-19T07:58:31.324Z,77.64
2019-03-19T08:00:53.019Z,76.65
2019-03-19T08:03:23.784Z,76.06
2019-03-19T08:05:54.961Z,77.02
2019-03-19T08:08:25.742Z,75.09
2019-03-19T08:10:56.595Z,75.36
2019-03-19T08:13:27.304Z,73.46
2019-03-19T08:15:58.076Z,74.61
2019-03-19T08:18:28.959Z,74.09
2019-03-19T08:20:59.741Z,73.55
2019-03-19T08:23:30.652Z,73.37
2019-03-19T08:26:01.312Z,72.46
2019-03-19T08:28:33.784Z,72.84
2019-03-19T08:31:05.755Z,72.32
2019-03-19T08:33:36.559Z,73.13
2019-03-19T08:36:09.504Z,73.84
2019-03-19T08:38:39.882Z,73.77
2019-03-19T08:41:10.916Z,72.98
2019-03-19T08:43:41.475Z,72.52
2019-03-19T08:46:12.335Z,72.00
2019-03-19T08:48:43.252Z,70.87
2019-03-19T08:51:14.137Z,70.83
2019-03-19T08:53:44.911Z,69.52
2019-03-19T08:56:16.079Z,69.48
2019-03-19T08:58:46.872Z,69.20
2019-03-19T09:01:17.736Z,68.58
2019-03-19T09:03:48.739Z,68.01
2019-03-19T09:06:20.874Z,68.09
2019-03-19T09:08:52.843Z,68.13
2019-03-19T09:11:23.823Z,68.88
2019-03-19T09:13:54.547Z,68.81
2019-03-19T09:16:25.307Z,67.78
2019-03-19T09:18:56.218Z,68.16
2019-03-19T09:21:27.137Z,68.01
2019-03-19T09:23:57.915Z,67.90
2019-03-19T09:26:28.872Z,69.00
2019-03-19T09:28:59.768Z,68.16
2019-03-19T09:31:31.852Z,67.33
2019-03-19T09:34:03.700Z,67.85
2019-03-19T09:36:34.656Z,67.86
2019-03-19T09:39:08.036Z,68.74
2019-03-19T09:41:38.931Z,68.17
2019-03-19T09:44:09.737Z,68.61
2019-03-19T09:46:40.514Z,66.19
2019-03-19T09:49:11.302Z,66.14
2019-03-19T09:51:42.168Z,65.69
2019-03-19T09:54:13.077Z,65.78
2019-03-19T09:56:44.019Z,63.68
2019-03-19T09:59:14.921Z,63.24
2019-03-19T10:01:45.852Z,63.16
2019-03-19T10:04:16.631Z,63.77
2019-03-19T10:06:47.492Z,64.01
2019-03-19T10:09:18.298Z,63.52
2019-03-19T10:11:49.170Z,63.16
2019-03-19T10:14:20.041Z,62.66
2019-03-19T10:16:50.805Z,62.91
2019-03-19T10:19:21.511Z,63.63
2019-03-19T10:21:52.286Z,63.59
2019-03-19T10:24:23.227Z,63.34
2019-03-19T10:26:54.056Z,62.26
2019-03-19T10:29:24.852Z,63.14
2019-03-19T10:31:56.055Z,62.42
2019-03-19T10:34:26.936Z,62.25
2019-03-19T10:36:57.980Z,60.88
2019-03-19T10:39:28.811Z,60.46
2019-03-19T10:41:59.615Z,57.86
2019-03-19T10:44:31.515Z,58.98
2019-03-19T10:47:03.346Z,59.26
2019-03-19T10:49:34.139Z,57.60
2019-03-19T10:52:05.043Z,56.98
2019-03-19T10:54:36.107Z,58.62
2019-03-19T10:57:07.125Z,58.36
2019-03-19T10:59:48.535Z,59.70
2019-03-19T11:02:10.364Z,60.29
2019-03-19T11:04:41.136Z,60.87
2019-03-19T11:07:11.931Z,61.24
2019-03-19T11:09:42.676Z,58.75
2019-03-19T11:12:13.516Z,59.27
2019-03-19T11:14:44.674Z,59.21
2019-03-19T11:17:15.688Z,60.74
2019-03-19T11:19:46.392Z,60.92
2019-03-19T11:22:17.137Z,59.97
2019-03-19T11:24:47.985Z,61.19
2019-03-19T11:27:19.720Z,60.92
2019-03-19T11:29:59.511Z,60.61
2019-03-19T11:32:23.018Z,59.89
2019-03-19T11:34:53.798Z,58.94
2019-03-19T11:37:24.636Z,57.68
2019-03-19T11:39:55.508Z,57.83
2019-03-19T11:42:26.173Z,58.57
2019-03-19T11:44:57.078Z,57.71
2019-03-19T11:47:27.879Z,57.57
2019-03-19T11:49:59.707Z,55.75
2019-03-19T11:52:30.367Z,55.66
2019-03-19T11:55:01.439Z,54.81
2019-03-19T11:57:32.316Z,53.72
2019-03-19T12:00:11.295Z,53.28
2019-03-19T12:02:35.869Z,52.00
2019-03-19T12:05:06.850Z,52.75
2019-03-19T12:07:37.606Z,53.21
2019-03-19T12:10:08.777Z,50.61
2019-03-19T12:12:39.284Z,50.47
2019-03-19T12:15:10.366Z,47.84
2019-03-19T12:17:41.361Z,47.88
2019-03-19T12:20:12.546Z,47.31
2019-03-19T12:22:44.293Z,50.63
2019-03-19T12:25:15.349Z,48.92
2019-03-19T12:27:47.194Z,50.67
2019-03-19T12:30:22.502Z,49.73
2019-03-19T12:32:50.618Z,49.46
2019-03-19T12:35:22.288Z,46.86
2019-03-19T12:37:53.172Z,48.06
2019-03-19T12:40:24.048Z,44.14
2019-03-19T12:42:55.328Z,45.19
2019-03-19T12:45:26.193Z,42.88
2019-03-19T12:47:56.964Z,45.20
2019-03-19T12:50:27.825Z,46.97
2019-03-19T12:52:58.601Z,48.14
2019-03-19T12:55:29.775Z,48.19
2019-03-19T12:58:01.528Z,45.36
2019-03-19T13:00:34.976Z,47.18
2019-03-19T13:03:06.243Z,46.45
2019-03-19T13:05:37.820Z,48.75
2019-03-19T13:08:08.535Z,48.72
2019-03-19T13:10:39.422Z,49.45
2019-03-19T13:13:10.232Z,47.95
2019-03-19T13:15:41.013Z,46.78
2019-03-19T13:18:11.699Z,47.51
2019-03-19T13:20:42.589Z,48.34
2019-03-19T13:23:13.502Z,45.11
2019-03-19T13:25:44.374Z,44.68
2019-03-19T13:28:15.115Z,46.13
2019-03-19T13:30:45.893Z,45.77
2019-03-19T13:33:17.748Z,43.50
2019-03-19T13:35:48.549Z,45.40
2019-03-19T13:38:19.527Z,44.77
2019-03-19T13:40:50.367Z,48.34
2019-03-19T13:43:21.300Z,44.83
2019-03-19T13:45:52.172Z,45.39
2019-03-19T13:48:22.656Z,45.48
2019-03-19T13:50:53.617Z,44.77
2019-03-19T13:53:24.405Z,43.90
2019-03-19T13:55:55.301Z,44.94
2019-03-19T13:58:27.283Z,45.92
2019-03-19T14:00:58.284Z,45.42
2019-03-19T14:03:30.036Z,46.82
2019-03-19T14:06:00.871Z,48.14
2019-03-19T14:08:32.521Z,48.47
2019-03-19T14:11:03.459Z,49.42
2019-03-19T14:13:34.570Z,50.58
2019-03-19T14:16:05.593Z,50.55
2019-03-19T14:18:36.382Z,48.93
2019-03-19T14:21:07.517Z,48.65
2019-03-19T14:23:38.227Z,48.60
2019-03-19T14:26:09.102Z,48.79
2019-03-19T14:28:39.928Z,51.08
2019-03-19T14:31:10.930Z,46.02
2019-03-19T14:33:41.601Z,45.44
2019-03-19T14:36:12.569Z,44.73
2019-03-19T14:38:47.216Z,43.18
2019-03-19T14:41:15.757Z,45.03
2019-03-19T14:43:46.397Z,41.53
2019-03-19T14:46:17.268Z,44.95
2019-03-19T14:48:48.061Z,42.23
2019-03-19T14:51:19.017Z,40.92
2019-03-19T14:53:49.838Z,43.00
2019-03-19T14:56:20.809Z,44.38
2019-03-19T14:58:51.572Z,43.55
2019-03-19T15:01:22.356Z,42.52
2019-03-19T15:03:54.204Z,43.27
2019-03-19T15:06:25.056Z,42.46
2019-03-19T15:08:55.842Z,44.12
2019-03-19T15:11:26.629Z,44.52
2019-03-19T15:13:57.513Z,43.80
2019-03-19T15:16:29.511Z,43.79
2019-03-19T15:19:00.312Z,43.12
2019-03-19T15:21:31.200Z,43.69
2019-03-19T15:24:01.982Z,44.07
2019-03-19T15:26:33.166Z,45.89
2019-03-19T15:29:04.062Z,45.46
2019-03-19T15:31:35.145Z,45.14
2019-03-19T15:34:06.061Z,45.48
2019-03-19T15:36:37.124Z,45.53
2019-03-19T15:39:08.984Z,45.64
2019-03-19T15:41:39.846Z,44.39
2019-03-19T15:44:10.642Z,43.46
2019-03-19T15:46:41.494Z,43.66
2019-03-19T15:49:12.329Z,42.17
2019-03-19T15:51:43.218Z,42.30
2019-03-19T15:54:14.060Z,45.13
2019-03-19T15:56:44.886Z,44.13
2019-03-19T15:59:15.670Z,44.93
2019-03-19T16:01:46.636Z,44.42
2019-03-19T16:04:17.346Z,43.52
2019-03-19T16:06:48.137Z,44.83
2019-03-19T16:09:18.914Z,43.97
2019-03-19T16:11:49.785Z,45.54
2019-03-19T16:14:20.586Z,44.63
2019-03-19T16:16:51.520Z,44.22
2019-03-19T16:19:22.471Z,45.02
2019-03-19T16:21:53.613Z,45.54
2019-03-19T16:24:24.547Z,44.52
2019-03-19T16:26:56.526Z,44.94
2019-03-19T16:29:27.242Z,46.06
2019-03-19T16:31:57.793Z,45.66
2019-03-19T16:34:28.303Z,46.04
2019-03-19T16:36:59.881Z,46.06
2019-03-19T16:39:30.684Z,45.99
2019-03-19T16:42:01.453Z,46.46
2019-03-19T16:44:32.257Z,47.02
2019-03-19T16:47:03.133Z,46.90
2019-03-19T16:49:33.831Z,47.75
2019-03-19T16:52:04.889Z,45.48
2019-03-19T16:54:35.673Z,45.63
2019-03-19T16:57:06.648Z,46.04
2019-03-19T16:59:37.476Z,46.07
2019-03-19T17:02:08.264Z,46.19
2019-03-19T17:04:39.171Z,47.22
2019-03-19T17:07:11.770Z,47.94
2019-03-19T17:09:42.658Z,48.54
2019-03-19T17:12:13.433Z,47.70
2019-03-19T17:14:44.207Z,48.32
2019-03-19T17:17:15.013Z,47.98
2019-03-19T17:19:45.813Z,49.00
2019-03-19T17:22:16.693Z,48.12
2019-03-19T17:24:47.618Z,47.83
2019-03-19T17:27:18.379Z,47.72
2019-03-19T17:29:49.324Z,47.84
2019-03-19T17:32:20.109Z,48.74
2019-03-19T17:34:50.892Z,49.59
2019-03-19T17:37:22.433Z,49.65
2019-03-19T17:39:53.288Z,50.13
2019-03-19T17:42:24.257Z,52.93
2019-03-19T17:44:55.058Z,51.86
2019-03-19T17:47:25.763Z,52.14
2019-03-19T17:49:56.541Z,52.00
2019-03-19T17:52:27.231Z,54.63
2019-03-19T17:54:58.135Z,54.11
2019-03-19T17:57:30.632Z,54.57
2019-03-19T18:00:01.308Z,53.96
2019-03-19T18:02:32.282Z,53.46
2019-03-19T18:05:03.195Z,55.08
2019-03-19T18:07:34.776Z,57.20
2019-03-19T18:10:06.288Z,57.69
2019-03-19T18:12:37.095Z,56.30
2019-03-19T18:15:08.685Z,54.90
2019-03-19T18:17:39.560Z,57.88
2019-03-19T18:20:10.626Z,56.69
2019-03-19T18:22:41.799Z,58.54
2019-03-19T18:25:13.048Z,58.90
2019-03-19T18:27:44.012Z,57.40
2019-03-19T18:30:15.336Z,56.14
2019-03-19T18:32:46.354Z,58.30
2019-03-19T18:35:17.214Z,57.66
2019-03-19T18:37:49.267Z,57.36
2019-03-19T18:40:20.560Z,58.74
2019-03-19T18:42:51.600Z,59.89
2019-03-19T18:45:22.576Z,60.94
2019-03-19T18:47:53.505Z,61.71
2019-03-19T18:50:24.420Z,61.79
2019-03-19T18:52:55.360Z,62.64
2019-03-19T18:55:26.189Z,61.90
2019-03-19T18:57:57.140Z,62.65
2019-03-19T19:00:28.031Z,62.15
2019-03-19T19:02:58.836Z,63.29
2019-03-19T19:05:29.737Z,63.45
2019-03-19T19:08:01.037Z,63.17
2019-03-19T19:10:31.789Z,63.80
2019-03-19T19:13:02.467Z,64.55
2019-03-19T19:15:33.360Z,64.82
2019-03-19T19:18:04.537Z,65.48
2019-03-19T19:20:35.388Z,65.89
2019-03-19T19:23:06.316Z,66.43
2019-03-19T19:25:37.112Z,66.54
2019-03-19T19:28:07.910Z,66.62
2019-03-19T19:30:38.821Z,67.37
2019-03-19T19:33:10.053Z,66.82
2019-03-19T19:35:40.878Z,67.33
2019-03-19T19:38:11.768Z,67.32
2019-03-19T19:40:42.571Z,66.17
2019-03-19T19:43:13.436Z,67.33
2019-03-19T19:45:44.214Z,67.45
2019-03-19T19:48:15.143Z,68.23
2019-03-19T19:50:46.086Z,67.84
2019-03-19T19:53:16.786Z,68.30
2019-03-19T19:55:47.565Z,68.72
2019-03-19T19:58:18.328Z,68.24
2019-03-19T20:00:50.081Z,68.68
2019-03-19T20:03:21.104Z,69.33
2019-03-19T20:05:52.950Z,70.34
2019-03-19T20:08:23.721Z,69.88
2019-03-19T20:10:54.448Z,69.56
2019-03-19T20:13:25.317Z,69.27
2019-03-19T20:15:56.129Z,69.21
2019-03-19T20:18:27.096Z,68.39
2019-03-19T20:20:57.984Z,69.03
2019-03-19T20:23:28.703Z,68.91
2019-03-19T20:25:59.605Z,68.83
2019-03-19T20:28:30.790Z,69.34
2019-03-19T20:31:01.554Z,69.48
2019-03-19T20:33:32.384Z,69.44
2019-03-19T20:36:03.197Z,70.04
2019-03-19T20:38:34.002Z,69.95
2019-03-19T20:41:05.003Z,70.29
2019-03-19T20:43:36.084Z,69.91
2019-03-19T20:46:06.952Z,70.22
2019-03-19T20:48:37.812Z,70.81
2019-03-19T20:51:08.723Z,71.41
2019-03-19T20:53:39.583Z,71.40
2019-03-19T20:56:10.356Z,72.00
2019-03-19T20:58:43.791Z,72.04
2019-03-19T21:01:13.732Z,72.48
2019-03-19T21:03:44.672Z,72.21
2019-03-19T21:06:15.586Z,72.35
2019-03-19T21:08:46.261Z,72.59
2019-03-19T21:11:17.083Z,72.28
2019-03-19T21:13:48.128Z,72.43
2019-03-19T21:16:19.064Z,72.90
2019-03-19T21:18:49.929Z,71.88
2019-03-19T21:21:20.728Z,72.28
2019-03-19T21:23:51.676Z,72.97
2019-03-19T21:26:22.503Z,73.04
2019-03-19T21:28:54.212Z,73.18
2019-03-19T21:31:24.995Z,73.20
2019-03-19T21:33:56.571Z,73.18
2019-03-19T21:36:27.357Z,73.38
2019-03-19T21:38:58.422Z,73.10
2019-03-19T21:41:29.165Z,73.70
2019-03-19T21:44:00.135Z,74.11
2019-03-19T21:46:31.206Z,73.79
2019-03-19T21:49:02.148Z,74.00
2019-03-19T21:51:33.020Z,74.13
2019-03-19T21:54:03.891Z,73.81
2019-03-19T21:56:35.787Z,74.47
2019-03-19T21:59:06.551Z,74.22
2019-03-19T22:01:37.506Z,74.30
2019-03-19T22:04:08.429Z,74.36
2019-03-19T22:06:39.308Z,74.59
2019-03-19T22:09:10.284Z,74.31
2019-03-19T22:11:41.132Z,73.87
2019-03-19T22:14:11.851Z,74.18
2019-03-19T22:16:42.912Z,74.09
2019-03-19T22:19:13.686Z,74.66
2019-03-19T22:21:44.495Z,74.26
2019-03-19T22:24:15.460Z,74.28
2019-03-19T22:26:46.313Z,74.15
2019-03-19T22:29:18.223Z,74.49
2019-03-19T22:31:49.094Z,75.01
2019-03-19T22:34:19.870Z,74.48
2019-03-19T22:36:50.631Z,75.00
2019-03-19T22:39:21.467Z,74.50
2019-03-19T22:41:52.199Z,74.26
2019-03-19T22:44:22.976Z,74.08
2019-03-19T22:46:53.781Z,73.80
2019-03-19T22:49:24.660Z,73.71
2019-03-19T22:51:55.444Z,73.26
2019-03-19T22:54:26.280Z,74.01
2019-03-19T22:56:57.195Z,74.35
2019-03-19T22:59:28.032Z,74.33
2019-03-19T23:01:58.909Z,74.35
2019-03-19T23:04:29.819Z,74.18
2019-03-19T23:07:00.581Z,74.58
2019-03-19T23:09:31.535Z,74.49
2019-03-19T23:12:02.616Z,73.75
2019-03-19T23:14:33.376Z,73.99
2019-03-19T23:17:04.079Z,74.03
2019-03-19T23:19:34.847Z,73.86
2019-03-19T23:22:05.858Z,74.33
2019-03-19T23:24:36.883Z,73.48
2019-03-19T23:27:07.913Z,74.33
2019-03-19T23:29:38.824Z,75.00
2019-03-19T23:32:09.715Z,75.16
2019-03-19T23:34:40.615Z,75.32
2019-03-19T23:37:11.528Z,74.88
2019-03-19T23:39:42.394Z,74.50
2019-03-19T23:42:13.295Z,74.21
2019-03-19T23:44:44.104Z,74.80
2019-03-19T23:47:15.028Z,74.25
2019-03-19T23:49:45.981Z,74.15
2019-03-19T23:52:17.339Z,74.67
2019-03-19T23:54:47.862Z,74.47
2019-03-19T23:57:18.724Z,74.66
2019-03-19T23:59:49.430Z,74.72
